createdAt,value
2018-11-22T12:18:52.952Z,4.30
2018-11-22T12:23:37.197Z,4.30
2018-11-22T12:28:22.952Z,4.30
2018-11-22T12:33:09.441Z,4.10
2018-11-22T12:37:59.235Z,4.10
2018-11-22T12:42:43.360Z,3.90
2018-11-22T12:47:27.195Z,4.00
2018-11-22T12:52:11.133Z,4.00
2018-11-22T12:56:54.988Z,3.90
2018-11-22T13:01:38.954Z,3.90
2018-11-22T13:06:22.883Z,3.90
2018-11-22T13:11:07.039Z,3.90
2018-11-22T13:15:50.750Z,3.80
2018-11-22T13:20:34.912Z,3.70
2018-11-22T13:25:22.642Z,3.70
2018-11-22T13:30:10.906Z,3.70
2018-11-22T13:34:55.077Z,3.60
2018-11-22T13:39:39.042Z,3.50
2018-11-22T13:44:23.295Z,3.60
2018-11-22T13:49:08.156Z,3.50
2018-11-22T13:53:52.477Z,3.50
2018-11-22T13:58:36.310Z,3.30
2018-11-22T14:03:20.269Z,3.30
2018-11-22T14:08:04.536Z,3.30
2018-11-22T14:12:48.351Z,3.20
2018-11-22T14:17:32.250Z,3.20
2018-11-22T14:22:16.114Z,3.20
2018-11-22T14:27:01.146Z,3.20
2018-11-22T14:31:44.711Z,3.00
2018-11-22T14:36:28.540Z,3.20
2018-11-22T14:41:12.271Z,3.10
2018-11-22T14:45:56.879Z,3.10
2018-11-22T14:50:43.243Z,3.10
2018-11-22T14:55:27.015Z,3.10
2018-11-22T15:00:20.591Z,2.90
2018-11-22T15:05:05.569Z,3.00
2018-11-22T15:09:49.593Z,3.00
2018-11-22T15:14:47.719Z,2.90
2018-11-22T15:19:31.690Z,2.90
2018-11-22T15:24:15.592Z,2.90
2018-11-22T15:29:01.612Z,2.80
2018-11-22T15:33:45.560Z,2.80
2018-11-22T15:38:29.562Z,2.80
2018-11-22T15:43:14.912Z,2.70
2018-11-22T15:47:58.745Z,2.80
2018-11-22T15:52:44.542Z,2.70
2018-11-22T15:57:31.223Z,2.70
2018-11-22T16:02:16.022Z,2.80
2018-11-22T16:07:01.520Z,2.80
2018-11-22T16:11:46.239Z,2.90
2018-11-22T16:16:32.199Z,2.80
2018-11-22T16:21:16.597Z,2.80
2018-11-22T16:26:01.302Z,3.00
2018-11-22T16:30:47.077Z,3.00
2018-11-22T16:35:33.468Z,2.90
2018-11-22T16:40:19.083Z,2.90
2018-11-22T16:45:03.221Z,2.90
2018-11-22T16:49:49.118Z,2.80
2018-11-22T16:54:33.986Z,3.00
2018-11-22T16:59:18.658Z,2.90
2018-11-22T17:04:04.448Z,3.00
2018-11-22T17:08:49.150Z,3.00
2018-11-22T17:13:34.775Z,2.90
2018-11-22T17:18:20.474Z,2.90
2018-11-22T17:23:13.494Z,3.00
2018-11-22T17:27:59.623Z,3.00
2018-11-22T17:32:45.930Z,2.90
2018-11-22T17:37:30.746Z,2.90
2018-11-22T17:42:15.749Z,3.00
2018-11-22T17:47:03.757Z,3.00
2018-11-22T17:51:51.056Z,3.00
2018-11-22T17:56:37.885Z,3.00
2018-11-22T18:01:23.763Z,3.00
2018-11-22T18:06:08.273Z,3.00
2018-11-22T18:10:53.698Z,2.90
2018-11-22T18:15:41.601Z,2.90
2018-11-22T18:20:27.231Z,2.90
2018-11-22T18:25:14.075Z,2.80
2018-11-22T18:29:58.780Z,2.80
2018-11-22T18:34:42.903Z,2.80
2018-11-22T18:39:27.379Z,2.70
2018-11-22T18:44:12.548Z,2.70
2018-11-22T18:48:57.130Z,2.70
2018-11-22T18:53:43.031Z,2.60
2018-11-22T18:58:27.227Z,2.70
2018-11-22T19:03:13.369Z,2.60
2018-11-22T19:07:58.497Z,2.60
2018-11-22T19:12:46.188Z,2.60
2018-11-22T19:17:31.706Z,2.50
2018-11-22T19:22:25.181Z,2.60
2018-11-22T19:27:11.228Z,2.70
2018-11-22T19:31:55.068Z,2.70
2018-11-22T19:36:39.663Z,2.70
2018-11-22T19:41:23.816Z,2.70
2018-11-22T19:46:07.732Z,2.70
2018-11-22T19:50:52.674Z,2.70
2018-11-22T19:55:42.492Z,2.70
2018-11-22T20:00:27.506Z,2.60
2018-11-22T20:05:14.029Z,2.60
2018-11-22T20:09:58.042Z,2.60
2018-11-22T20:14:45.047Z,2.50
2018-11-22T20:19:30.963Z,2.40
2018-11-22T20:24:15.419Z,2.50
2018-11-22T20:29:00.361Z,2.50
2018-11-22T20:33:44.187Z,2.60
2018-11-22T20:38:28.224Z,2.70
2018-11-22T20:43:11.973Z,2.60
2018-11-22T20:47:58.394Z,2.60
2018-11-22T20:52:43.518Z,2.60
2018-11-22T20:57:27.467Z,2.60
2018-11-22T21:02:11.432Z,2.60
2018-11-22T21:06:55.526Z,2.50
2018-11-22T21:11:43.381Z,2.60
2018-11-22T21:16:23.324Z,2.60
2018-11-22T21:21:07.118Z,2.50
2018-11-22T21:25:51.022Z,2.60
2018-11-22T21:30:36.837Z,2.60
2018-11-22T21:35:21.816Z,2.60
2018-11-22T21:40:05.938Z,2.60
2018-11-22T21:44:49.862Z,2.60
2018-11-22T21:49:33.745Z,2.40
2018-11-22T21:54:17.558Z,2.30
2018-11-22T21:59:01.338Z,2.50
2018-11-22T22:03:46.128Z,2.50
2018-11-22T22:08:30.070Z,2.50
2018-11-22T22:13:13.974Z,2.60
2018-11-22T22:17:57.820Z,2.60
2018-11-22T22:22:42.297Z,2.60
2018-11-22T22:27:26.099Z,2.60
2018-11-22T22:32:09.878Z,2.60
2018-11-22T22:36:53.807Z,2.60
2018-11-22T22:41:37.618Z,2.60
2018-11-22T22:46:21.541Z,2.60
2018-11-22T22:51:05.425Z,2.50
2018-11-22T22:55:49.411Z,2.50
2018-11-22T23:00:36.504Z,2.50
2018-11-22T23:05:20.855Z,2.50
2018-11-22T23:10:04.601Z,2.40
2018-11-22T23:14:48.511Z,2.30
2018-11-22T23:19:32.383Z,2.30
2018-11-22T23:24:16.168Z,2.20
2018-11-22T23:28:59.984Z,2.20
2018-11-22T23:33:43.978Z,2.20
2018-11-22T23:38:27.837Z,2.30
2018-11-22T23:43:11.741Z,2.20
2018-11-22T23:47:55.580Z,2.20
2018-11-22T23:52:39.683Z,2.20
2018-11-22T23:57:23.562Z,2.20
